createdAt,value
2022-08-04T00:05:00.542Z,2.25
2022-08-04T00:10:35.017Z,1.85
2022-08-04T00:16:08.613Z,1.77
2022-08-04T00:21:43.877Z,1.98
2022-08-04T00:27:16.038Z,1.90
2022-08-04T00:32:47.396Z,1.80
2022-08-04T00:38:19.189Z,1.80
2022-08-04T00:44:10.556Z,1.65
2022-08-04T00:49:53.590Z,1.65
2022-08-04T00:55:48.932Z,1.88
2022-08-04T01:01:43.256Z,1.92
2022-08-04T01:07:41.612Z,1.80
2022-08-04T01:13:33.707Z,2.03
2022-08-04T01:19:29.793Z,1.80
2022-08-04T01:25:38.487Z,1.80
2022-08-04T01:31:53.715Z,1.90
2022-08-04T01:37:47.368Z,1.60
2022-08-04T01:43:18.464Z,2.00
2022-08-04T01:48:54.389Z,2.08
2022-08-04T01:54:27.579Z,2.17
2022-08-04T02:00:00.090Z,1.83
2022-08-04T02:06:03.430Z,1.80
2022-08-04T02:11:24.535Z,1.90
2022-08-04T02:16:55.828Z,2.17
2022-08-04T02:22:27.887Z,1.80
2022-08-04T02:28:24.816Z,2.03
2022-08-04T02:33:57.277Z,2.15
2022-08-04T02:39:41.408Z,2.28
2022-08-04T02:45:20.561Z,1.98
2022-08-04T02:50:53.966Z,1.93
2022-08-04T02:56:30.585Z,2.20
2022-08-04T03:02:01.740Z,2.30
2022-08-04T03:07:48.025Z,2.30
2022-08-04T03:13:46.205Z,2.47
2022-08-04T03:19:51.340Z,2.20
2022-08-04T03:25:56.589Z,2.20
2022-08-04T03:31:43.977Z,2.38
2022-08-04T03:37:52.299Z,2.17
2022-08-04T03:43:58.700Z,2.00
2022-08-04T03:50:16.913Z,2.33
2022-08-04T03:56:18.601Z,2.17
2022-08-04T04:02:02.498Z,2.30
2022-08-04T04:07:58.105Z,1.92
2022-08-04T04:14:09.583Z,2.35
2022-08-04T04:20:10.960Z,2.10
2022-08-04T04:25:49.599Z,2.33
2022-08-04T04:32:02.223Z,2.10
2022-08-04T04:38:29.605Z,2.10
2022-08-04T04:44:21.972Z,1.95
2022-08-04T04:50:37.718Z,2.00
2022-08-04T04:56:35.346Z,2.63
2022-08-04T05:02:23.213Z,6.50
2022-08-04T05:08:43.239Z,11.57
2022-08-04T05:14:35.801Z,10.82
2022-08-04T05:20:01.194Z,3.60
2022-08-04T05:25:58.682Z,3.55
2022-08-04T05:31:35.547Z,3.10
2022-08-04T05:37:15.551Z,4.03
2022-08-04T05:42:48.452Z,4.30
2022-08-04T05:48:19.478Z,3.00
2022-08-04T05:53:51.562Z,2.53
2022-08-04T05:59:26.004Z,2.40
2022-08-04T06:04:57.969Z,3.00
2022-08-04T06:10:29.975Z,3.00
2022-08-04T06:16:02.575Z,2.30
2022-08-04T06:21:33.947Z,2.53
2022-08-04T06:27:06.469Z,3.72
2022-08-04T06:32:47.594Z,2.53
2022-08-04T06:38:21.302Z,5.47
2022-08-04T06:43:53.336Z,2.60
2022-08-04T06:49:25.303Z,3.13
2022-08-04T06:54:56.810Z,1.97
2022-08-04T07:00:28.349Z,2.53
2022-08-04T07:06:06.285Z,2.10
2022-08-04T07:11:45.787Z,2.40
2022-08-04T07:17:17.653Z,2.47
2022-08-04T07:22:49.769Z,2.20
2022-08-04T07:28:22.508Z,2.30
2022-08-04T07:34:16.455Z,2.22
2022-08-04T07:39:47.907Z,2.17
2022-08-04T07:45:21.165Z,1.90
2022-08-04T07:50:54.562Z,2.20
2022-08-04T07:56:29.010Z,2.22
2022-08-04T08:02:01.595Z,2.05
2022-08-04T08:07:32.441Z,2.80
2022-08-04T08:13:03.285Z,2.20
2022-08-04T08:18:34.109Z,2.45
2022-08-04T08:24:12.607Z,1.80
2022-08-04T08:29:44.049Z,2.17
2022-08-04T08:35:14.889Z,1.95
2022-08-04T08:40:53.533Z,2.20
2022-08-04T08:46:49.509Z,1.80
2022-08-04T08:53:12.521Z,2.20
2022-08-04T08:58:46.023Z,1.90
2022-08-04T09:04:32.548Z,1.90
2022-08-04T09:10:11.120Z,2.10
2022-08-04T09:15:54.404Z,1.60
2022-08-04T09:21:52.034Z,1.67
2022-08-04T09:27:37.603Z,2.30
2022-08-04T09:33:47.079Z,1.98
2022-08-04T09:39:31.846Z,2.20
2022-08-04T09:45:26.703Z,2.22
2022-08-04T09:51:57.206Z,2.30
2022-08-04T09:57:46.675Z,2.07
2022-08-04T10:03:20.383Z,2.17
2022-08-04T10:09:09.389Z,1.92
2022-08-04T10:14:50.041Z,2.03
2022-08-04T10:20:47.038Z,2.10
2022-08-04T10:26:46.372Z,2.10
2022-08-04T10:33:13.021Z,2.00
2022-08-04T10:38:57.074Z,2.00
2022-08-04T10:44:57.309Z,2.17
2022-08-04T10:50:29.629Z,2.00
2022-08-04T10:56:09.035Z,2.28
2022-08-04T11:02:00.862Z,2.03
2022-08-04T11:07:35.909Z,2.10
2022-08-04T11:13:22.096Z,1.95
2022-08-04T11:19:21.070Z,2.30
2022-08-04T11:25:14.716Z,2.10
2022-08-04T11:31:14.722Z,1.98
2022-08-04T11:36:57.812Z,2.20
2022-08-04T11:42:36.883Z,1.77
2022-08-04T11:48:13.673Z,2.05
2022-08-04T11:53:44.914Z,2.13
2022-08-04T11:59:16.253Z,2.08
2022-08-04T12:04:58.952Z,2.10
2022-08-04T12:10:54.400Z,2.38
2022-08-04T12:16:36.759Z,1.88
2022-08-04T12:22:16.256Z,2.28
2022-08-04T12:28:06.426Z,1.90
2022-08-04T12:34:05.217Z,2.00
2022-08-04T12:40:27.618Z,1.90
2022-08-04T12:45:30.616Z,1.98
2022-08-04T12:51:02.046Z,2.00
2022-08-04T12:56:33.895Z,1.92
2022-08-04T13:02:11.851Z,2.00
2022-08-04T13:07:48.156Z,1.90
2022-08-04T13:13:26.045Z,1.83
2022-08-04T13:18:57.868Z,1.80
2022-08-04T13:24:57.151Z,2.10
2022-08-04T13:30:32.768Z,1.90
2022-08-04T13:36:05.171Z,2.05
2022-08-04T13:41:42.576Z,1.63
2022-08-04T13:47:16.948Z,1.88
2022-08-04T13:52:48.330Z,2.00
2022-08-04T13:58:24.752Z,1.75
2022-08-04T14:04:21.457Z,1.92
2022-08-04T14:10:02.733Z,1.90
2022-08-04T14:16:03.823Z,1.92
2022-08-04T14:21:36.952Z,2.10
2022-08-04T14:27:08.498Z,1.73
2022-08-04T14:33:59.459Z,2.00
2022-08-04T14:38:58.535Z,1.80
2022-08-04T14:44:32.338Z,1.95
2022-08-04T14:50:03.728Z,2.20
2022-08-04T14:55:35.746Z,1.88
2022-08-04T15:01:11.495Z,2.00
2022-08-04T15:06:45.691Z,2.22
2022-08-04T15:12:16.707Z,2.10
2022-08-04T15:17:48.504Z,2.08
2022-08-04T15:28:57.099Z,1.88
2022-08-04T15:34:27.959Z,1.92
2022-08-04T15:40:07.366Z,1.98
2022-08-04T15:46:41.082Z,1.85
2022-08-04T15:51:40.481Z,1.98
2022-08-04T15:57:11.858Z,2.10
2022-08-04T16:02:44.039Z,2.08
2022-08-04T16:08:16.417Z,1.83
2022-08-04T16:14:10.131Z,2.30
2022-08-04T16:19:45.059Z,2.92
2022-08-04T16:25:16.204Z,2.10
2022-08-04T16:30:47.003Z,2.40
2022-08-04T16:36:56.618Z,2.13
2022-08-04T16:42:27.694Z,2.20
2022-08-04T16:48:02.757Z,2.35
2022-08-04T16:54:03.742Z,2.10
2022-08-04T16:59:31.589Z,2.13
2022-08-04T17:05:06.939Z,2.25
2022-08-04T17:10:43.071Z,2.13
2022-08-04T17:22:33.311Z,2.37
2022-08-04T17:33:58.810Z,2.95
2022-08-04T17:39:35.005Z,2.80
2022-08-04T17:51:21.986Z,2.50
2022-08-04T17:57:20.429Z,2.42
2022-08-04T18:02:53.943Z,2.45
2022-08-04T18:08:38.682Z,2.78
2022-08-04T18:14:12.893Z,2.28
2022-08-04T18:19:55.438Z,2.15
2022-08-04T18:25:50.314Z,2.40
2022-08-04T18:31:18.355Z,2.05
2022-08-04T18:36:57.331Z,1.90
2022-08-04T18:42:30.473Z,2.10
2022-08-04T18:48:14.493Z,2.03
2022-08-04T18:53:55.477Z,1.80
2022-08-04T18:59:30.139Z,1.75
2022-08-04T19:05:01.836Z,2.30
2022-08-04T19:10:32.748Z,2.00
2022-08-04T19:16:06.622Z,2.25
2022-08-04T19:22:01.342Z,2.67
2022-08-04T19:27:38.850Z,2.92
2022-08-04T19:33:11.523Z,2.28
2022-08-04T19:38:43.805Z,2.40
2022-08-04T19:44:15.818Z,2.30
2022-08-04T19:50:05.431Z,2.22
2022-08-04T19:55:39.611Z,2.30
2022-08-04T20:01:31.335Z,2.07
2022-08-04T20:07:03.073Z,2.08
2022-08-04T20:12:34.831Z,2.42
2022-08-04T20:18:36.672Z,2.53
2022-08-04T20:24:38.613Z,1.98
2022-08-04T20:29:56.779Z,2.00
2022-08-04T20:35:32.670Z,2.10
2022-08-04T20:41:23.766Z,2.30
2022-08-04T20:46:54.995Z,2.15
2022-08-04T20:52:28.643Z,2.38
2022-08-04T20:58:03.384Z,2.67
2022-08-04T21:03:59.770Z,2.17
2022-08-04T21:09:38.005Z,2.10
2022-08-04T21:15:16.460Z,2.20
2022-08-04T21:20:56.297Z,1.95
2022-08-04T21:26:27.421Z,2.13
2022-08-04T21:31:58.261Z,2.28
2022-08-04T21:37:56.626Z,2.17
2022-08-04T21:43:23.614Z,1.88
2022-08-04T21:48:59.868Z,2.20
2022-08-04T21:54:31.216Z,2.00
2022-08-04T22:00:05.161Z,2.00
2022-08-04T22:05:42.061Z,2.20
2022-08-04T22:11:43.961Z,2.15
2022-08-04T22:17:20.531Z,2.00
2022-08-04T22:22:54.737Z,2.05
2022-08-04T22:28:28.996Z,1.88
2022-08-04T22:34:00.399Z,2.30
2022-08-04T22:39:31.308Z,2.10
2022-08-04T22:45:02.574Z,2.70
2022-08-04T22:50:33.920Z,2.08
2022-08-04T22:56:09.679Z,2.30
2022-08-04T23:02:00.403Z,2.10
2022-08-04T23:07:47.170Z,2.13
2022-08-04T23:13:20.790Z,2.17
2022-08-04T23:18:52.314Z,2.00
2022-08-04T23:24:25.528Z,2.17
2022-08-04T23:30:01.139Z,2.00
2022-08-04T23:35:32.167Z,2.20
2022-08-04T23:41:08.302Z,2.17
2022-08-04T23:46:44.466Z,2.33
2022-08-04T23:52:27.851Z,2.20
2022-08-04T23:58:05.480Z,2.03
